Time;durP1;ratioP1;P1;durP2;ratioP2;P2;SDS_P1;SDS_P2;PMS_P1;PMS_P2;Temp;Humidity;BMP_temperature;BMP_pressure;BME280_temperature;BME280_humidity;BME280_pressure;Samples;Min_cycle;Max_cycle;Signal;HPM_P1;HPM_P2
2021/01/22 00:00:15;;;;;;;2.50;0.60;;;10.40;73.80;;;;;;5112542;28;20200;-63
2021/01/22 00:02:41;;;;;;;0.73;0.50;;;10.50;73.30;;;;;;5104825;28;20110;-63
2021/01/22 00:05:07;;;;;;;0.82;0.52;;;10.50;73.70;;;;;;5112647;28;20477;-64
2021/01/22 00:07:33;;;;;;;0.55;0.50;;;10.40;74.00;;;;;;5102987;28;20023;-64
2021/01/22 00:09:59;;;;;;;0.20;0.20;;;10.30;74.30;;;;;;5111908;28;20456;-64
2021/01/22 00:12:27;;;;;;;4.07;0.50;;;10.30;74.60;;;;;;5112741;28;20035;-64
2021/01/22 00:14:53;;;;;;;0.35;0.30;;;10.20;74.90;;;;;;5102015;28;20349;-65
2021/01/22 00:17:19;;;;;;;0.90;0.50;;;10.10;75.60;;;;;;5101790;28;20101;-63
2021/01/22 00:19:44;;;;;;;0.52;0.50;;;10.10;75.70;;;;;;5102238;28;20509;-63
2021/01/22 00:22:10;;;;;;;0.65;0.50;;;10.10;76.20;;;;;;5109057;28;20031;-63
2021/01/22 00:24:35;;;;;;;0.60;0.60;;;10.00;76.60;;;;;;5110960;28;20028;-63
2021/01/22 00:27:01;;;;;;;0.93;0.55;;;9.90;77.20;;;;;;5111226;28;20452;-63
2021/01/22 00:29:27;;;;;;;1.27;0.63;;;9.80;77.80;;;;;;5101442;28;20039;-63
2021/01/22 00:31:52;;;;;;;0.50;0.43;;;9.80;78.20;;;;;;5104095;28;20074;-65
2021/01/22 00:34:21;;;;;;;1.17;0.40;;;9.70;78.80;;;;;;5111704;28;20020;-63
2021/01/22 00:36:46;;;;;;;0.60;0.30;;;9.60;79.40;;;;;;5111382;28;20027;-63
2021/01/22 00:39:12;;;;;;;1.52;0.60;;;9.50;80.00;;;;;;5103537;28;20601;-63
2021/01/22 00:41:38;;;;;;;0.50;0.50;;;9.50;80.50;;;;;;5099646;28;20023;-63
2021/01/22 00:44:03;;;;;;;0.73;0.50;;;9.40;81.00;;;;;;5100766;28;20718;-63
2021/01/22 00:46:29;;;;;;;1.48;0.50;;;9.40;80.60;;;;;;5112426;28;20036;-63
2021/01/22 00:48:55;;;;;;;1.17;0.32;;;9.40;81.00;;;;;;5108687;28;20031;-65
2021/01/22 00:51:20;;;;;;;2.65;0.40;;;9.30;80.90;;;;;;5106570;28;20127;-63
2021/01/22 00:53:46;;;;;;;1.10;0.50;;;9.30;81.20;;;;;;5110540;28;20042;-63
2021/01/22 00:56:12;;;;;;;0.40;0.30;;;9.20;81.50;;;;;;5104451;28;20031;-63
2021/01/22 00:58:37;;;;;;;1.42;0.40;;;9.20;81.80;;;;;;5111796;28;20039;-64
2021/01/22 01:01:03;;;;;;;0.77;0.63;;;9.20;82.30;;;;;;5111967;28;20106;-63
2021/01/22 01:03:29;;;;;;;1.23;0.50;;;9.10;82.60;;;;;;5104365;28;20024;-62
2021/01/22 01:05:54;;;;;;;0.75;0.50;;;9.00;83.40;;;;;;5111298;28;20377;-64
2021/01/22 01:08:20;;;;;;;2.58;0.45;;;9.00;83.40;;;;;;5091128;28;20031;-63
2021/01/22 01:10:46;;;;;;;0.93;0.38;;;8.90;83.60;;;;;;5105458;28;20088;-64
2021/01/22 01:13:11;;;;;;;0.70;0.40;;;8.90;83.60;;;;;;5111129;28;20472;-63
2021/01/22 01:15:37;;;;;;;1.58;0.50;;;8.90;83.40;;;;;;5105198;28;20484;-63
2021/01/22 01:18:03;;;;;;;1.70;0.60;;;8.90;83.00;;;;;;5105532;28;20397;-63
2021/01/22 01:20:31;;;;;;;0.90;0.57;;;8.90;83.00;;;;;;5109470;28;20046;-63
2021/01/22 01:22:58;;;;;;;2.78;0.38;;;8.90;83.10;;;;;;5107444;28;20028;-64
2021/01/22 01:25:24;;;;;;;2.10;0.50;;;8.90;82.30;;;;;;5106855;28;20023;-63
2021/01/22 01:27:49;;;;;;;0.63;0.50;;;8.90;81.70;;;;;;5102473;28;20385;-63
2021/01/22 01:30:16;;;;;;;0.57;0.30;;;8.90;81.90;;;;;;5103643;28;20062;-63
2021/01/22 01:32:41;;;;;;;0.43;0.38;;;8.90;81.60;;;;;;5111493;28;20077;-63
2021/01/22 01:35:08;;;;;;;2.03;0.47;;;8.90;81.20;;;;;;5100342;28;20492;-63
2021/01/22 01:37:33;;;;;;;1.60;0.30;;;9.00;81.10;;;;;;5091702;28;20062;-62
2021/01/22 01:39:59;;;;;;;0.25;0.25;;;9.00;80.50;;;;;;5099532;28;20063;-63
2021/01/22 01:42:25;;;;;;;0.30;0.30;;;9.00;80.60;;;;;;5111371;28;20027;-63
2021/01/22 01:44:51;;;;;;;1.35;0.55;;;9.10;80.40;;;;;;5111595;28;20032;-63
2021/01/22 01:47:16;;;;;;;0.65;0.30;;;9.10;80.10;;;;;;5101686;28;20135;-63
2021/01/22 01:49:43;;;;;;;0.40;0.30;;;9.10;80.10;;;;;;5095653;28;20053;-63
2021/01/22 01:52:09;;;;;;;0.98;0.47;;;9.10;80.20;;;;;;5095343;28;20032;-63
2021/01/22 01:54:35;;;;;;;1.30;0.40;;;9.10;80.00;;;;;;5110183;28;20050;-63
2021/01/22 01:57:01;;;;;;;0.55;0.40;;;9.20;79.50;;;;;;5105575;28;20114;-63
2021/01/22 01:59:27;;;;;;;1.60;0.40;;;9.30;79.20;;;;;;5091957;28;20102;-63
2021/01/22 02:01:53;;;;;;;0.45;0.43;;;9.40;78.60;;;;;;5110396;28;20027;-65
2021/01/22 02:04:19;;;;;;;1.02;0.43;;;9.40;78.20;;;;;;5105539;28;20032;-63
2021/01/22 02:06:45;;;;;;;0.68;0.40;;;9.40;78.30;;;;;;5099666;28;20092;-64
2021/01/22 02:09:11;;;;;;;0.85;0.43;;;9.50;77.60;;;;;;5073909;28;20035;-64
2021/01/22 02:11:38;;;;;;;2.13;0.50;;;9.50;77.40;;;;;;5077293;28;20040;-62
2021/01/22 02:14:04;;;;;;;1.67;0.50;;;9.50;77.10;;;;;;5093181;28;20115;-63
2021/01/22 02:16:31;;;;;;;2.85;0.50;;;9.50;76.80;;;;;;5095880;28;20126;-65
2021/01/22 02:18:58;;;;;;;2.10;0.60;;;9.50;76.70;;;;;;5110597;28;20031;-65
2021/01/22 02:21:33;;;;;;;1.70;0.50;;;9.60;76.60;;;;;;5113304;28;20035;-63
2021/01/22 02:24:12;;;;;;;0.65;0.20;;;9.50;76.10;;;;;;5101451;28;20162;-63
2021/01/22 02:26:55;;;;;;;1.05;0.47;;;9.50;76.30;;;;;;5114936;28;20468;-63
2021/01/22 02:29:21;;;;;;;2.75;0.60;;;9.50;76.00;;;;;;5098514;28;20115;-62
2021/01/22 02:31:50;;;;;;;1.17;0.47;;;9.50;76.30;;;;;;5114701;28;20063;-62
2021/01/22 02:34:21;;;;;;;1.25;0.40;;;9.50;75.90;;;;;;5113023;28;20081;-63
2021/01/22 02:36:50;;;;;;;1.92;0.55;;;9.50;76.00;;;;;;5106919;28;20036;-63
2021/01/22 02:39:18;;;;;;;2.38;0.70;;;9.50;75.80;;;;;;5109731;28;20020;-62
2021/01/22 02:41:46;;;;;;;3.67;0.70;;;9.50;75.90;;;;;;5096099;28;20046;-63
2021/01/22 02:44:12;;;;;;;2.58;0.50;;;9.50;76.00;;;;;;5106045;28;20028;-63
2021/01/22 02:46:39;;;;;;;0.93;0.57;;;9.50;75.40;;;;;;5114188;28;20027;-63
2021/01/22 02:49:05;;;;;;;2.05;0.60;;;9.50;75.60;;;;;;5110594;28;20102;-62
2021/01/22 02:51:31;;;;;;;1.48;0.65;;;9.50;75.60;;;;;;5114570;28;20376;-62
2021/01/22 02:53:57;;;;;;;1.45;0.68;;;9.40;75.80;;;;;;5105642;28;20039;-64
2021/01/22 02:57:19;;;;;;;1.63;0.50;;;9.40;75.80;;;;;;5106466;28;20039;-62
2021/01/22 03:00:15;;;;;;;2.97;0.85;;;9.40;76.00;;;;;;5031039;28;20025;-62
2021/01/22 03:03:04;;;;;;;4.63;0.70;;;9.40;76.10;;;;;;5049984;28;20049;-63
2021/01/22 03:05:32;;;;;;;2.25;0.43;;;9.30;76.00;;;;;;5111534;28;20127;-63
2021/01/22 03:08:15;;;;;;;2.10;0.55;;;9.30;76.30;;;;;;5105771;28;20098;-63
2021/01/22 03:10:43;;;;;;;4.35;1.10;;;9.20;76.50;;;;;;5106215;28;20031;-63
2021/01/22 03:13:13;;;;;;;2.70;0.70;;;9.10;76.80;;;;;;5101539;28;20442;-63
2021/01/22 03:15:39;;;;;;;;;;;9.00;77.20;;;;;;5110683;28;20030;-62
2021/01/22 03:18:17;;;;;;;4.45;0.93;;;9.00;77.40;;;;;;5111611;28;19907;-62
2021/01/22 03:20:44;;;;;;;2.63;0.70;;;8.90;77.40;;;;;;5101173;28;20082;-63
2021/01/22 03:23:11;;;;;;;3.17;0.73;;;8.90;77.60;;;;;;5111720;28;20081;-63
2021/01/22 03:25:37;;;;;;;4.28;0.90;;;8.90;77.80;;;;;;5110451;28;20028;-62
2021/01/22 03:28:06;;;;;;;4.93;1.00;;;8.80;78.00;;;;;;5109285;28;20023;-63
2021/01/22 03:30:32;;;;;;;2.80;1.13;;;8.80;78.00;;;;;;5104745;28;20088;-62
2021/01/22 03:32:59;;;;;;;3.65;0.70;;;8.80;77.60;;;;;;5104548;27;20135;-66
2021/01/22 03:35:25;;;;;;;2.55;0.80;;;8.80;77.90;;;;;;5113275;27;20031;-62
2021/01/22 03:37:51;;;;;;;1.50;0.50;;;8.80;77.90;;;;;;5111889;28;20072;-62
2021/01/22 03:40:17;;;;;;;3.70;0.93;;;8.70;78.50;;;;;;5102682;28;20051;-62
2021/01/22 03:42:45;;;;;;;2.70;0.65;;;8.70;78.00;;;;;;5103076;28;20024;-64
2021/01/22 03:45:11;;;;;;;3.28;0.85;;;8.70;78.00;;;;;;5104344;28;20080;-64
2021/01/22 03:47:37;;;;;;;4.07;0.90;;;8.60;78.00;;;;;;5113933;28;20019;-64
2021/01/22 03:50:04;;;;;;;3.88;0.90;;;8.60;78.30;;;;;;5108829;28;20574;-63
2021/01/22 03:52:29;;;;;;;3.05;0.82;;;8.60;78.00;;;;;;5102399;28;20088;-62
2021/01/22 03:54:55;;;;;;;5.90;1.10;;;8.70;77.70;;;;;;5110582;28;20098;-65
2021/01/22 03:57:21;;;;;;;2.58;0.93;;;8.60;77.50;;;;;;5095375;28;20486;-63
2021/01/22 03:59:46;;;;;;;4.45;0.80;;;8.60;77.70;;;;;;5105370;28;20516;-63
2021/01/22 04:02:12;;;;;;;2.75;1.02;;;8.60;77.60;;;;;;5110560;28;20035;-63
2021/01/22 04:04:38;;;;;;;3.70;0.70;;;8.60;77.50;;;;;;5112244;28;20026;-62
2021/01/22 04:07:04;;;;;;;5.13;0.88;;;8.60;77.50;;;;;;5112490;28;20028;-62
2021/01/22 04:09:30;;;;;;;4.07;0.75;;;8.60;77.00;;;;;;5111447;28;20031;-62
2021/01/22 04:11:57;;;;;;;4.03;0.95;;;8.60;76.90;;;;;;5112555;28;20476;-64
2021/01/22 04:14:23;;;;;;;7.43;1.75;;;8.60;76.70;;;;;;5112981;28;20051;-62
2021/01/22 04:16:49;;;;;;;3.75;0.70;;;8.70;76.40;;;;;;5105327;28;20035;-62
2021/01/22 04:19:15;;;;;;;5.57;0.95;;;8.60;76.10;;;;;;5109117;28;20020;-62
2021/01/22 04:21:40;;;;;;;3.63;0.80;;;8.60;76.00;;;;;;5096765;28;20043;-62
2021/01/22 04:24:06;;;;;;;2.85;0.80;;;8.60;75.80;;;;;;5111439;28;20047;-62
2021/01/22 04:26:32;;;;;;;3.95;1.00;;;8.70;75.70;;;;;;5107829;28;20059;-62
2021/01/22 04:28:57;;;;;;;2.45;0.77;;;8.70;75.30;;;;;;5099417;28;20024;-64
2021/01/22 04:31:24;;;;;;;1.95;0.85;;;8.70;75.50;;;;;;5111574;28;20485;-62
2021/01/22 04:33:49;;;;;;;4.53;1.00;;;8.60;75.20;;;;;;5106080;28;20046;-62
2021/01/22 04:36:16;;;;;;;1.83;0.98;;;8.60;75.30;;;;;;5109394;28;20028;-63
2021/01/22 04:38:42;;;;;;;3.75;0.90;;;8.60;75.50;;;;;;5112835;28;20030;-62
2021/01/22 04:41:07;;;;;;;4.85;1.20;;;8.70;74.80;;;;;;5103265;28;20464;-63
2021/01/22 04:43:33;;;;;;;4.18;1.08;;;8.70;74.30;;;;;;5110559;28;20039;-62
2021/01/22 04:46:01;;;;;;;6.00;0.98;;;8.80;73.90;;;;;;5105578;28;20024;-63
2021/01/22 04:48:29;;;;;;;3.30;0.68;;;8.80;73.70;;;;;;5109515;28;20027;-63
2021/01/22 04:50:58;;;;;;;2.28;0.80;;;8.80;73.60;;;;;;5096243;28;20031;-64
2021/01/22 04:53:27;;;;;;;3.47;1.00;;;8.90;73.20;;;;;;5103679;28;20020;-62
2021/01/22 04:55:54;;;;;;;4.22;1.10;;;8.90;73.00;;;;;;5111759;28;20279;-64
2021/01/22 04:58:22;;;;;;;4.18;1.05;;;9.00;73.00;;;;;;5107146;28;20478;-62
2021/01/22 05:00:48;;;;;;;4.38;0.80;;;9.00;72.80;;;;;;5108440;28;20027;-63
2021/01/22 05:03:15;;;;;;;3.42;1.05;;;9.00;72.80;;;;;;5100286;28;20051;-62
2021/01/22 05:05:41;;;;;;;4.35;0.60;;;9.00;72.80;;;;;;5097346;28;20024;-62
2021/01/22 05:08:06;;;;;;;1.55;0.77;;;9.10;72.70;;;;;;5110939;28;20499;-63
2021/01/22 05:10:32;;;;;;;3.70;0.93;;;9.10;72.70;;;;;;5108850;28;20031;-62
2021/01/22 05:12:58;;;;;;;2.75;0.70;;;9.10;72.80;;;;;;5106398;28;20032;-63
2021/01/22 05:15:25;;;;;;;2.45;0.40;;;9.20;72.90;;;;;;5110272;28;20387;-62
2021/01/22 05:18:01;;;;;;;2.08;0.50;;;9.10;73.00;;;;;;5103269;28;20036;-62
2021/01/22 05:20:37;;;;;;;1.35;0.40;;;9.20;73.30;;;;;;5111994;28;20486;-62
2021/01/22 05:23:08;;;;;;;4.28;0.63;;;9.20;73.40;;;;;;5107447;28;20111;-62
2021/01/22 05:25:54;;;;;;;1.38;0.47;;;9.20;73.20;;;;;;5092526;28;20051;-62
2021/01/22 05:28:32;;;;;;;2.75;0.52;;;9.20;73.60;;;;;;5084474;28;20073;-62
2021/01/22 05:30:58;;;;;;;1.33;0.50;;;9.20;73.90;;;;;;5091850;28;20081;-62
2021/01/22 05:33:26;;;;;;;2.90;0.60;;;9.20;74.10;;;;;;5111898;28;20032;-62
2021/01/22 05:35:51;;;;;;;1.73;0.40;;;9.20;74.10;;;;;;5103219;28;20091;-62
2021/01/22 05:38:17;;;;;;;2.25;0.40;;;9.20;74.10;;;;;;5101813;28;20103;-62
2021/01/22 05:40:50;;;;;;;0.65;0.30;;;9.20;74.30;;;;;;5098003;28;20469;-62
2021/01/22 05:43:16;;;;;;;1.15;0.40;;;9.10;74.50;;;;;;5106642;28;20042;-62
2021/01/22 05:45:46;;;;;;;1.20;0.45;;;9.10;74.30;;;;;;5104866;28;20046;-62
2021/01/22 05:48:26;;;;;;;2.28;0.40;;;9.10;74.50;;;;;;5102921;28;20028;-62
2021/01/22 05:50:57;;;;;;;2.40;0.30;;;9.20;74.40;;;;;;5085677;28;20105;-62
2021/01/22 05:53:24;;;;;;;2.28;0.30;;;9.20;74.40;;;;;;5108294;28;20028;-62
2021/01/22 05:56:10;;;;;;;2.22;0.40;;;9.20;74.40;;;;;;5109534;28;20076;-63
2021/01/22 05:58:38;;;;;;;1.05;0.30;;;9.20;74.60;;;;;;5106036;28;20027;-63
2021/01/22 06:01:07;;;;;;;5.25;0.80;;;9.20;74.40;;;;;;5092550;28;20051;-63
2021/01/22 06:03:33;;;;;;;1.48;0.30;;;9.20;74.40;;;;;;5089888;28;20020;-63
2021/01/22 06:05:59;;;;;;;1.08;0.30;;;9.20;74.40;;;;;;5088944;28;20439;-63
2021/01/22 06:08:25;;;;;;;2.20;0.40;;;9.20;74.30;;;;;;5090158;28;20051;-64
2021/01/22 06:10:53;;;;;;;2.00;0.50;;;9.20;74.10;;;;;;5092045;28;20032;-64
2021/01/22 06:13:25;;;;;;;3.42;0.82;;;9.30;74.10;;;;;;5090720;28;20032;-63
2021/01/22 06:15:55;;;;;;;3.63;0.55;;;9.30;74.00;;;;;;5089980;28;20048;-63
2021/01/22 06:18:32;;;;;;;1.60;0.43;;;9.30;73.80;;;;;;5089943;28;20461;-63
2021/01/22 06:21:13;;;;;;;1.45;0.40;;;9.20;74.00;;;;;;5086931;28;20058;-64
2021/01/22 06:23:39;;;;;;;1.67;0.30;;;9.30;74.10;;;;;;5089862;28;20016;-63
2021/01/22 06:26:06;;;;;;;4.18;0.75;;;9.20;74.00;;;;;;5091251;28;20437;-63
2021/01/22 06:28:34;;;;;;;1.85;0.65;;;9.30;74.00;;;;;;5095234;28;20055;-63
2021/01/22 06:31:02;;;;;;;1.95;0.40;;;9.20;73.90;;;;;;5089845;28;20056;-63
2021/01/22 06:33:28;;;;;;;1.13;0.40;;;9.30;73.90;;;;;;5089058;28;20028;-63
2021/01/22 06:35:55;;;;;;;2.00;0.47;;;9.30;73.90;;;;;;5086901;28;20024;-64
2021/01/22 06:38:23;;;;;;;2.40;0.50;;;9.30;73.90;;;;;;5089295;28;20040;-63
2021/01/22 06:40:51;;;;;;;1.95;0.40;;;9.30;73.90;;;;;;5090012;28;20036;-63
2021/01/22 06:43:18;;;;;;;2.17;0.40;;;9.20;73.90;;;;;;5093109;28;20138;-63
2021/01/22 06:45:44;;;;;;;2.25;0.55;;;9.20;73.90;;;;;;5089921;28;20349;-63
2021/01/22 06:48:10;;;;;;;2.17;0.45;;;9.20;74.00;;;;;;5088396;28;20051;-63
2021/01/22 06:50:38;;;;;;;1.90;0.50;;;9.20;73.80;;;;;;5091038;28;20030;-63
2021/01/22 06:53:10;;;;;;;1.42;0.50;;;9.20;73.90;;;;;;5091353;28;20043;-64
2021/01/22 06:55:54;;;;;;;1.95;0.50;;;9.20;74.00;;;;;;5093097;28;20507;-63
2021/01/22 06:58:30;;;;;;;1.95;0.30;;;9.20;73.90;;;;;;5090277;28;20362;-63
2021/01/22 07:00:57;;;;;;;1.10;0.40;;;9.20;73.90;;;;;;5093590;28;20143;-64
2021/01/22 07:03:35;;;;;;;3.92;0.50;;;9.10;74.10;;;;;;5092874;28;20062;-64
2021/01/22 07:06:08;;;;;;;1.67;0.40;;;9.10;74.20;;;;;;5091210;28;20085;-63
2021/01/22 07:08:53;;;;;;;2.05;0.90;;;9.10;74.10;;;;;;5089630;28;20110;-63
2021/01/22 07:11:19;;;;;;;1.23;0.30;;;9.10;74.30;;;;;;5095045;28;20031;-63
2021/01/22 07:13:48;;;;;;;1.27;0.60;;;9.10;74.30;;;;;;5095318;28;20024;-63
2021/01/22 07:16:16;;;;;;;1.40;0.40;;;9.00;74.20;;;;;;5091732;28;20623;-63
2021/01/22 07:18:49;;;;;;;0.95;0.30;;;9.10;74.00;;;;;;5092478;28;20032;-63
2021/01/22 07:21:18;;;;;;;1.55;0.60;;;9.00;74.10;;;;;;5091906;28;20020;-64
2021/01/22 07:23:46;;;;;;;3.15;0.70;;;9.00;74.00;;;;;;5093995;28;20070;-63
2021/01/22 07:26:13;;;;;;;3.53;0.70;;;9.00;74.10;;;;;;5092979;28;20059;-63
2021/01/22 07:28:49;;;;;;;1.75;0.55;;;9.00;74.20;;;;;;5093665;28;20023;-63
2021/01/22 07:31:53;;;;;;;2.15;0.52;;;9.00;74.20;;;;;;5091607;28;20052;-64
2021/01/22 07:34:43;;;;;;;3.17;0.50;;;9.00;74.00;;;;;;5088878;28;20038;-63
2021/01/22 07:37:19;;;;;;;1.95;0.50;;;9.00;74.30;;;;;;5090800;28;20092;-62
2021/01/22 07:39:45;;;;;;;3.65;0.60;;;9.00;74.10;;;;;;5089909;28;20416;-63
2021/01/22 07:42:16;;;;;;;3.08;0.38;;;9.00;74.20;;;;;;5093206;28;20424;-63
2021/01/22 07:44:44;;;;;;;1.88;0.55;;;9.00;74.10;;;;;;5089811;28;20101;-63
2021/01/22 07:47:11;;;;;;;2.58;0.52;;;9.00;74.70;;;;;;5090099;28;20032;-63
2021/01/22 07:49:57;;;;;;;2.38;0.45;;;9.00;74.20;;;;;;5092188;28;20524;-63
2021/01/22 07:52:23;;;;;;;3.40;0.40;;;8.90;74.20;;;;;;5092294;28;20092;-63
2021/01/22 07:54:50;;;;;;;0.95;0.55;;;9.00;74.00;;;;;;5090437;28;20032;-63
2021/01/22 07:57:21;;;;;;;4.97;0.43;;;8.90;73.80;;;;;;5093041;28;20601;-64
2021/01/22 07:59:48;;;;;;;2.72;0.40;;;9.00;73.50;;;;;;5094764;28;20028;-63
2021/01/22 08:02:16;;;;;;;3.17;0.43;;;9.10;73.50;;;;;;5106144;28;20394;-63
2021/01/22 08:04:43;;;;;;;6.95;0.43;;;9.10;73.20;;;;;;5111088;28;20038;-62
2021/01/22 08:07:09;;;;;;;3.08;0.68;;;9.10;73.00;;;;;;5111271;28;20032;-63
2021/01/22 08:09:35;;;;;;;2.40;0.60;;;9.20;73.10;;;;;;5112943;28;20522;-62
2021/01/22 08:12:10;;;;;;;1.58;0.60;;;9.20;73.10;;;;;;5102949;28;20032;-62
2021/01/22 08:14:36;;;;;;;2.00;0.30;;;9.30;73.20;;;;;;5112800;28;20028;-62
2021/01/22 08:17:06;;;;;;;2.13;0.63;;;9.30;72.70;;;;;;5110155;28;20438;-63
2021/01/22 08:19:33;;;;;;;2.25;0.40;;;9.40;72.40;;;;;;5106695;28;20051;-62
2021/01/22 08:22:01;;;;;;;2.72;0.50;;;9.50;72.40;;;;;;5103208;28;20032;-64
2021/01/22 08:24:27;;;;;;;2.45;0.55;;;9.60;72.10;;;;;;5095680;28;20480;-63
2021/01/22 08:27:01;;;;;;;5.72;0.50;;;9.60;72.00;;;;;;5112327;28;20388;-63
2021/01/22 08:29:29;;;;;;;0.65;0.38;;;9.70;71.70;;;;;;5110824;28;20059;-64
2021/01/22 08:31:55;;;;;;;2.40;0.43;;;9.80;71.70;;;;;;5107388;28;20083;-65
2021/01/22 08:34:23;;;;;;;3.50;0.65;;;9.90;71.40;;;;;;5100736;28;20051;-62
2021/01/22 08:36:56;;;;;;;3.80;0.77;;;9.90;71.20;;;;;;5099836;28;20106;-63
2021/01/22 08:39:21;;;;;;;2.78;0.88;;;10.10;70.90;;;;;;5109107;28;20118;-63
2021/01/22 08:41:47;;;;;;;6.10;0.82;;;10.20;70.40;;;;;;5091812;28;20111;-63
2021/01/22 08:44:13;;;;;;;3.13;1.00;;;10.20;70.10;;;;;;5090598;28;20036;-64
2021/01/22 08:46:50;;;;;;;6.60;1.50;;;10.30;70.10;;;;;;5080079;28;20078;-63
2021/01/22 08:49:16;;;;;;;5.75;0.70;;;10.30;70.00;;;;;;5089934;28;20019;-63
2021/01/22 08:51:42;;;;;;;3.03;0.80;;;10.30;69.80;;;;;;5111274;28;20114;-63
2021/01/22 08:54:09;;;;;;;1.77;0.68;;;10.40;69.60;;;;;;5077212;28;20060;-63
2021/01/22 08:56:35;;;;;;;0.50;0.40;;;10.50;69.10;;;;;;5111858;28;20106;-64
2021/01/22 08:59:13;;;;;;;6.90;1.00;;;10.50;68.40;;;;;;5095053;28;20028;-67
2021/01/22 09:01:53;;;;;;;3.15;0.57;;;10.60;68.50;;;;;;5110717;28;20038;-63
2021/01/22 09:04:23;;;;;;;;;;;10.70;68.20;;;;;;5111351;28;20027;-63
2021/01/22 09:06:51;;;;;;;4.55;0.57;;;10.80;67.50;;;;;;5103776;28;20263;-63
2021/01/22 09:09:52;;;;;;;3.33;0.70;;;10.80;67.40;;;;;;5111000;28;20054;-66
2021/01/22 09:12:24;;;;;;;3.88;0.60;;;10.90;67.40;;;;;;5109932;28;20099;-65
2021/01/22 09:14:51;;;;;;;4.70;0.60;;;10.90;67.10;;;;;;5111851;28;20026;-66
2021/01/22 09:17:24;;;;;;;5.53;0.57;;;10.90;67.00;;;;;;5109247;28;20196;-65
2021/01/22 09:19:59;;;;;;;1.20;0.45;;;10.90;67.20;;;;;;5095611;28;20078;-67
2021/01/22 09:22:31;;;;;;;11.27;1.15;;;10.90;67.10;;;;;;5104557;28;20043;-66
2021/01/22 09:25:02;;;;;;;6.20;0.70;;;10.90;67.80;;;;;;5105135;28;20097;-67
2021/01/22 09:27:28;;;;;;;5.43;0.77;;;10.90;67.20;;;;;;5107264;28;20073;-66
2021/01/22 09:29:54;;;;;;;1.20;0.52;;;10.90;67.40;;;;;;5111310;28;20465;-73
2021/01/22 09:32:20;;;;;;;2.10;0.65;;;10.90;67.20;;;;;;5107718;28;20104;-77
2021/01/22 09:34:46;;;;;;;3.38;0.40;;;11.00;67.20;;;;;;5113294;28;20023;-77
2021/01/22 09:37:11;;;;;;;2.75;0.63;;;11.10;66.80;;;;;;5112903;28;20036;-79
2021/01/22 09:39:37;;;;;;;7.15;0.70;;;11.20;66.40;;;;;;5100807;28;20028;-77
2021/01/22 09:42:03;;;;;;;5.55;0.80;;;11.30;66.10;;;;;;5105721;28;20028;-76
2021/01/22 09:44:29;;;;;;;4.18;0.63;;;11.40;65.20;;;;;;5111209;28;20031;-74
2021/01/22 09:46:55;;;;;;;4.82;0.70;;;11.50;65.10;;;;;;5099998;28;20102;-72
2021/01/22 09:49:20;;;;;;;3.10;0.55;;;11.50;65.10;;;;;;5096161;28;20047;-72
2021/01/22 09:51:46;;;;;;;4.60;0.80;;;11.60;64.80;;;;;;5101468;28;20576;-73
2021/01/22 09:54:12;;;;;;;1.45;0.50;;;11.70;64.80;;;;;;5109123;28;20032;-72
2021/01/22 09:56:38;;;;;;;4.65;0.68;;;11.80;64.20;;;;;;5094462;28;20031;-72
2021/01/22 09:59:07;;;;;;;5.75;0.73;;;11.80;64.10;;;;;;5109831;28;20019;-72
2021/01/22 10:01:34;;;;;;;3.10;0.77;;;11.80;64.20;;;;;;5098018;28;20038;-72
2021/01/22 10:04:01;;;;;;;5.45;0.98;;;11.90;63.70;;;;;;5098202;28;20050;-73
2021/01/22 10:06:27;;;;;;;1.42;0.60;;;12.00;63.40;;;;;;5098563;28;20047;-61
2021/01/22 10:08:52;;;;;;;1.48;0.55;;;12.10;63.20;;;;;;5110726;28;20469;-61
2021/01/22 10:11:18;;;;;;;6.57;1.08;;;12.20;63.10;;;;;;5097514;28;20109;-62
2021/01/22 10:13:44;;;;;;;4.38;0.90;;;12.30;62.60;;;;;;5111193;28;20023;-61
2021/01/22 10:16:09;;;;;;;4.07;0.70;;;12.40;62.60;;;;;;5104354;28;20028;-61
2021/01/22 10:18:35;;;;;;;9.13;1.00;;;12.50;62.30;;;;;;5111115;28;20030;-61
2021/01/22 10:21:01;;;;;;;4.57;0.70;;;12.60;61.70;;;;;;5109917;28;20085;-61
2021/01/22 10:23:26;;;;;;;1.20;0.65;;;12.60;61.40;;;;;;5109277;28;20134;-61
2021/01/22 10:25:52;;;;;;;4.32;1.48;;;12.70;61.30;;;;;;5111161;28;20027;-62
2021/01/22 10:28:17;;;;;;;2.15;0.70;;;12.60;61.50;;;;;;5091576;28;20028;-61
2021/01/22 10:30:43;;;;;;;3.72;0.85;;;12.60;61.50;;;;;;5085295;28;20040;-61
2021/01/22 10:33:09;;;;;;;6.45;0.77;;;12.50;62.30;;;;;;5099396;28;20053;-60
2021/01/22 10:35:34;;;;;;;1.95;0.47;;;12.50;61.70;;;;;;5109936;28;20049;-61
2021/01/22 10:38:00;;;;;;;2.67;0.80;;;12.60;61.70;;;;;;5109920;28;20350;-61
2021/01/22 10:40:26;;;;;;;3.80;0.60;;;12.60;61.80;;;;;;5094880;28;20119;-61
2021/01/22 10:42:51;;;;;;;3.17;0.60;;;12.70;62.20;;;;;;5110729;28;20467;-61
2021/01/22 10:45:17;;;;;;;6.78;0.95;;;12.70;61.80;;;;;;5096606;28;20072;-61
2021/01/22 10:47:43;;;;;;;4.05;0.60;;;12.80;62.00;;;;;;5098861;28;20103;-61
2021/01/22 10:50:09;;;;;;;3.80;0.82;;;12.90;61.50;;;;;;5106712;28;20027;-61
2021/01/22 10:52:35;;;;;;;5.53;0.73;;;12.90;61.20;;;;;;5105853;28;20043;-61
2021/01/22 10:55:00;;;;;;;4.05;0.80;;;12.90;61.20;;;;;;5113301;28;20019;-65
2021/01/22 10:57:26;;;;;;;5.78;1.60;;;13.00;61.10;;;;;;5113915;28;20077;-64
2021/01/22 10:59:52;;;;;;;3.05;0.70;;;13.10;60.80;;;;;;5097820;28;20070;-61
2021/01/22 11:02:17;;;;;;;1.27;0.60;;;13.20;60.10;;;;;;5104549;28;20031;-61
2021/01/22 11:04:43;;;;;;;7.95;1.20;;;13.20;60.30;;;;;;5105786;28;20024;-61
2021/01/22 11:07:09;;;;;;;1.65;0.70;;;13.20;60.50;;;;;;5105319;28;20098;-61
2021/01/22 11:09:34;;;;;;;1.85;0.47;;;13.30;60.30;;;;;;5114146;28;20108;-61
2021/01/22 11:12:04;;;;;;;5.47;0.85;;;13.30;60.10;;;;;;5103786;28;20122;-63
2021/01/22 11:14:30;;;;;;;1.48;0.50;;;13.30;60.30;;;;;;5107728;28;20110;-61
2021/01/22 11:16:55;;;;;;;3.33;0.70;;;13.30;60.40;;;;;;5105998;28;20107;-62
2021/01/22 11:19:21;;;;;;;3.30;0.77;;;13.40;60.20;;;;;;5104280;28;20617;-61
2021/01/22 11:21:47;;;;;;;6.70;0.80;;;13.50;59.60;;;;;;5113551;28;20028;-60
2021/01/22 11:24:12;;;;;;;1.27;0.52;;;13.50;59.60;;;;;;5095466;28;20030;-61
2021/01/22 11:26:38;;;;;;;2.25;0.55;;;13.60;59.70;;;;;;5113511;28;20023;-62
2021/01/22 11:29:04;;;;;;;1.75;0.65;;;13.50;59.50;;;;;;5107133;28;20028;-60
2021/01/22 11:31:29;;;;;;;4.05;0.85;;;13.50;59.40;;;;;;5101677;28;20048;-60
2021/01/22 11:33:55;;;;;;;1.77;0.70;;;13.50;59.10;;;;;;5113299;28;20032;-60
2021/01/22 11:36:22;;;;;;;0.90;0.70;;;13.50;59.10;;;;;;5110617;28;20032;-61
2021/01/22 11:38:48;;;;;;;3.75;0.70;;;13.40;59.00;;;;;;5113340;28;20028;-62
2021/01/22 11:41:14;;;;;;;0.45;0.45;;;13.40;59.20;;;;;;5105686;27;20096;-61
2021/01/22 11:43:41;;;;;;;2.78;0.60;;;13.50;58.80;;;;;;5113052;28;20461;-61
2021/01/22 11:46:07;;;;;;;3.53;0.68;;;13.70;58.50;;;;;;5094793;27;20357;-60
2021/01/22 11:48:32;;;;;;;5.65;1.20;;;13.80;58.40;;;;;;5105209;28;20111;-60
2021/01/22 11:50:58;;;;;;;2.78;0.70;;;13.90;57.80;;;;;;5098419;28;20076;-62
2021/01/22 11:53:24;;;;;;;1.10;0.80;;;14.00;58.00;;;;;;5102343;28;20493;-60
2021/01/22 11:55:50;;;;;;;1.50;0.40;;;14.10;57.60;;;;;;5109250;28;20465;-60
2021/01/22 11:58:16;;;;;;;2.55;0.80;;;14.20;56.80;;;;;;5105927;28;20088;-61
2021/01/22 12:00:41;;;;;;;3.50;1.08;;;14.10;57.00;;;;;;5110055;28;20096;-60
2021/01/22 12:03:07;;;;;;;1.90;0.60;;;14.00;57.10;;;;;;5091065;28;20472;-61
2021/01/22 12:05:33;;;;;;;6.18;1.15;;;14.00;57.20;;;;;;5084399;28;20106;-60
2021/01/22 12:07:58;;;;;;;3.22;0.50;;;13.90;57.40;;;;;;5100424;28;20032;-63
2021/01/22 12:10:24;;;;;;;2.65;0.60;;;13.90;57.50;;;;;;5107566;28;20449;-61
2021/01/22 12:12:50;;;;;;;3.13;0.57;;;13.90;57.30;;;;;;5101065;28;20046;-63
2021/01/22 12:15:15;;;;;;;5.20;0.70;;;13.80;56.90;;;;;;5099882;28;20407;-62
2021/01/22 12:17:41;;;;;;;1.65;0.57;;;13.80;57.40;;;;;;5092802;28;20031;-62
2021/01/22 12:20:07;;;;;;;1.08;0.50;;;13.80;57.60;;;;;;5106950;28;20032;-63
2021/01/22 12:22:33;;;;;;;3.33;0.55;;;13.80;57.10;;;;;;5111093;28;20032;-63
2021/01/22 12:24:58;;;;;;;2.72;0.63;;;13.80;57.60;;;;;;5097897;28;20384;-64
2021/01/22 12:27:24;;;;;;;1.73;0.60;;;13.80;57.50;;;;;;5111730;28;20395;-61
2021/01/22 12:29:50;;;;;;;3.55;0.80;;;13.80;57.20;;;;;;5103966;28;20107;-61
2021/01/22 12:32:15;;;;;;;1.08;0.55;;;13.90;57.10;;;;;;5103014;28;20082;-62
2021/01/22 12:34:43;;;;;;;0.30;0.30;;;14.00;56.70;;;;;;5108782;28;20035;-64
2021/01/22 12:37:08;;;;;;;3.55;0.70;;;14.00;55.50;;;;;;5102805;28;20028;-63
2021/01/22 12:39:34;;;;;;;4.35;0.70;;;14.20;55.00;;;;;;5099690;28;20397;-65
2021/01/22 12:42:00;;;;;;;3.33;0.70;;;14.20;54.50;;;;;;5098371;28;20460;-64
2021/01/22 12:44:25;;;;;;;0.47;0.40;;;14.30;54.40;;;;;;5110748;28;20123;-62
2021/01/22 12:46:51;;;;;;;3.33;0.80;;;14.40;53.60;;;;;;5106145;28;20103;-63
2021/01/22 12:49:16;;;;;;;2.85;0.65;;;14.40;53.00;;;;;;5095064;28;20032;-63
2021/01/22 12:51:42;;;;;;;2.45;0.60;;;14.40;53.20;;;;;;5094312;28;20100;-67
2021/01/22 12:54:08;;;;;;;1.77;0.80;;;14.30;53.30;;;;;;5102564;28;20031;-68
2021/01/22 12:56:34;;;;;;;4.38;0.75;;;14.30;54.50;;;;;;5110942;28;20027;-64